Time;durP1;ratioP1;P1;durP2;ratioP2;P2;SDS_P1;SDS_P2;PMS_P1;PMS_P2;Temp;Humidity;BMP_temperature;BMP_pressure;BME280_temperature;BME280_humidity;BME280_pressure;Samples;Min_cycle;Max_cycle;Signal;HPM_P1;HPM_P2
2021/03/30 00:01:15;;;;;;;6.82;2.10;;;9.10;94.80;;;;;;5004874;28;20554;-73
2021/03/30 00:03:43;;;;;;;7.43;2.58;;;9.30;94.20;;;;;;5004901;28;20041;-73
2021/03/30 00:06:08;;;;;;;12.85;5.05;;;9.20;95.10;;;;;;5004734;28;20552;-74
2021/03/30 00:08:34;;;;;;;12.82;6.40;;;9.20;95.70;;;;;;4998911;28;20026;-73
2021/03/30 00:11:00;;;;;;;9.27;2.65;;;9.10;96.40;;;;;;4996569;28;20848;-74
2021/03/30 00:13:25;;;;;;;9.05;2.58;;;9.00;96.70;;;;;;4992252;28;20034;-73
2021/03/30 00:15:51;;;;;;;9.57;2.30;;;8.80;97.50;;;;;;4993936;28;20029;-73
2021/03/30 00:18:17;;;;;;;11.50;2.63;;;8.70;97.80;;;;;;5004070;28;20026;-73
2021/03/30 00:20:43;;;;;;;13.30;2.67;;;8.80;97.80;;;;;;5000179;28;20034;-73
2021/03/30 00:23:08;;;;;;;11.25;2.72;;;8.80;98.00;;;;;;4999838;28;20058;-73
2021/03/30 00:25:34;;;;;;;9.07;2.92;;;8.80;97.90;;;;;;5005152;28;20553;-73
2021/03/30 00:28:00;;;;;;;11.23;2.45;;;8.80;98.10;;;;;;5003848;28;20030;-74
2021/03/30 00:30:26;;;;;;;8.73;2.25;;;8.80;98.10;;;;;;5005142;28;20034;-73
2021/03/30 00:32:51;;;;;;;5.65;2.13;;;8.70;98.40;;;;;;5008177;28;20025;-73
2021/03/30 00:35:17;;;;;;;8.52;3.08;;;8.80;98.80;;;;;;5008563;28;20057;-73
2021/03/30 00:37:43;;;;;;;11.98;3.42;;;8.70;99.10;;;;;;5009016;28;20219;-73
2021/03/30 00:40:11;;;;;;;8.05;2.33;;;8.60;99.00;;;;;;5007359;28;20383;-74
2021/03/30 00:42:37;;;;;;;7.47;3.08;;;8.60;99.50;;;;;;5008465;28;20034;-73
2021/03/30 00:45:04;;;;;;;11.68;3.55;;;8.50;99.50;;;;;;5006014;28;20496;-73
2021/03/30 00:47:32;;;;;;;6.90;2.13;;;8.40;99.90;;;;;;5009608;28;20045;-73
2021/03/30 00:49:58;;;;;;;7.50;1.80;;;8.50;99.90;;;;;;5006617;28;20467;-74
2021/03/30 00:52:24;;;;;;;8.68;2.30;;;8.50;99.70;;;;;;5009195;28;20030;-73
2021/03/30 00:54:50;;;;;;;8.43;1.90;;;8.60;98.40;;;;;;5008090;28;20072;-73
2021/03/30 00:57:18;;;;;;;8.93;3.03;;;8.70;97.90;;;;;;5009317;28;20042;-73
2021/03/30 00:59:44;;;;;;;9.00;2.05;;;8.80;98.00;;;;;;5008862;28;20054;-73
2021/03/30 01:02:10;;;;;;;8.60;2.10;;;8.90;97.20;;;;;;5008412;28;20068;-73
2021/03/30 01:04:35;;;;;;;12.93;6.35;;;9.00;97.10;;;;;;5008344;28;20534;-74
2021/03/30 01:07:02;;;;;;;9.23;4.40;;;9.00;97.70;;;;;;4993552;28;20057;-74
2021/03/30 01:09:48;;;;;;;15.52;6.50;;;9.00;98.60;;;;;;4989056;28;20101;-74
2021/03/30 01:12:29;;;;;;;8.48;2.67;;;8.90;99.40;;;;;;5003588;28;20426;-73
2021/03/30 01:15:09;;;;;;;17.85;9.48;;;8.80;98.80;;;;;;5008396;28;20583;-73
2021/03/30 01:17:56;;;;;;;12.73;5.47;;;8.80;99.30;;;;;;5007978;28;20287;-74
2021/03/30 01:20:47;;;;;;;30.20;14.10;;;8.70;99.90;;;;;;5008772;28;20041;-73
2021/03/30 01:23:25;;;;;;;15.18;6.13;;;8.50;99.90;;;;;;4989129;28;20034;-73
2021/03/30 01:26:08;;;;;;;5.10;1.95;;;8.50;99.90;;;;;;4988385;28;20049;-73
2021/03/30 01:29:18;;;;;;;5.32;1.90;;;8.20;99.90;;;;;;4989266;28;20481;-74
2021/03/30 01:31:48;;;;;;;6.93;1.73;;;8.30;99.90;;;;;;4991588;28;20046;-73
2021/03/30 01:34:18;;;;;;;7.28;2.05;;;8.30;99.90;;;;;;5007384;28;20038;-73
2021/03/30 01:36:45;;;;;;;10.02;2.10;;;8.30;99.90;;;;;;5007650;28;20577;-74
2021/03/30 01:39:14;;;;;;;8.57;2.00;;;8.30;99.90;;;;;;5007562;28;20033;-73
2021/03/30 01:41:44;;;;;;;6.53;2.00;;;8.30;99.90;;;;;;5007714;28;20053;-74
2021/03/30 01:44:13;;;;;;;7.63;2.15;;;8.20;99.90;;;;;;5006340;28;20026;-74
2021/03/30 01:46:42;;;;;;;8.25;2.05;;;8.20;99.90;;;;;;5008222;28;20455;-74
2021/03/30 01:49:10;;;;;;;4.82;1.83;;;8.10;99.90;;;;;;5007011;28;20026;-74
2021/03/30 01:51:36;;;;;;;8.13;2.17;;;8.10;99.90;;;;;;5006949;28;20153;-73
2021/03/30 01:54:04;;;;;;;5.15;1.48;;;8.10;99.90;;;;;;5005865;28;20029;-73
2021/03/30 01:56:31;;;;;;;7.82;1.77;;;8.10;99.90;;;;;;5007129;28;20038;-74
2021/03/30 01:58:59;;;;;;;6.53;1.77;;;8.00;99.90;;;;;;5006396;28;20072;-74
2021/03/30 02:01:26;;;;;;;6.80;1.80;;;8.00;99.90;;;;;;5005215;28;20264;-73
2021/03/30 02:03:52;;;;;;;6.45;1.90;;;8.00;99.90;;;;;;5005159;28;20087;-73
2021/03/30 02:06:19;;;;;;;10.27;2.92;;;8.00;99.90;;;;;;5007366;28;20041;-73
2021/03/30 02:08:46;;;;;;;10.63;2.25;;;7.90;99.90;;;;;;5005887;28;20375;-73
2021/03/30 02:11:21;;;;;;;11.27;3.03;;;7.80;99.90;;;;;;5007330;28;20058;-74
2021/03/30 02:13:54;;;;;;;9.45;2.53;;;7.80;99.90;;;;;;5006367;28;20029;-73
2021/03/30 02:16:22;;;;;;;7.82;2.53;;;7.70;99.90;;;;;;5007730;28;20044;-74
2021/03/30 02:18:58;;;;;;;7.03;1.70;;;7.50;99.90;;;;;;5007519;28;20034;-73
2021/03/30 02:21:32;;;;;;;7.13;2.47;;;7.60;99.90;;;;;;4988074;28;20049;-73
2021/03/30 02:24:01;;;;;;;8.90;2.42;;;7.60;99.90;;;;;;4987266;28;20334;-74
2021/03/30 02:26:29;;;;;;;7.53;3.20;;;7.60;99.90;;;;;;5006806;28;20038;-74
2021/03/30 02:28:58;;;;;;;6.03;1.85;;;7.60;99.90;;;;;;5007023;28;20398;-73
2021/03/30 02:31:27;;;;;;;10.27;2.88;;;7.50;99.90;;;;;;4989605;28;20625;-73
2021/03/30 02:33:57;;;;;;;13.50;2.50;;;7.50;99.90;;;;;;4987718;28;20018;-73
2021/03/30 02:36:26;;;;;;;9.02;1.95;;;7.50;99.90;;;;;;5002447;28;20042;-73
2021/03/30 02:38:54;;;;;;;8.32;2.83;;;7.50;99.90;;;;;;5007178;28;20057;-73
2021/03/30 02:41:21;;;;;;;7.85;2.30;;;7.60;99.90;;;;;;5005862;28;20045;-74
2021/03/30 02:43:48;;;;;;;6.82;2.60;;;7.60;99.90;;;;;;5007317;28;20124;-73
2021/03/30 02:46:16;;;;;;;9.07;2.47;;;7.50;99.90;;;;;;5005454;28;20046;-73
2021/03/30 02:48:43;;;;;;;7.78;1.80;;;7.40;99.90;;;;;;5007263;28;20025;-73
2021/03/30 02:51:10;;;;;;;7.57;1.98;;;7.40;99.90;;;;;;5005537;28;20029;-74
2021/03/30 02:53:36;;;;;;;10.05;2.35;;;7.40;99.90;;;;;;5006804;28;20044;-73
2021/03/30 02:56:05;;;;;;;7.47;2.38;;;7.40;99.90;;;;;;5005606;28;20514;-73
2021/03/30 02:58:32;;;;;;;6.07;1.83;;;7.40;99.90;;;;;;5007263;28;20029;-73
2021/03/30 03:00:59;;;;;;;9.63;1.98;;;7.40;99.90;;;;;;5005380;28;20050;-73
2021/03/30 03:03:26;;;;;;;9.13;2.60;;;7.50;99.90;;;;;;5006711;28;20597;-73
2021/03/30 03:05:52;;;;;;;6.78;2.05;;;7.50;99.90;;;;;;5005709;28;20038;-74
2021/03/30 03:08:20;;;;;;;7.53;1.75;;;7.50;99.90;;;;;;5006829;28;20026;-74
2021/03/30 03:10:46;;;;;;;8.68;2.67;;;7.50;99.90;;;;;;5005932;28;20034;-73
2021/03/30 03:13:16;;;;;;;6.55;2.35;;;7.30;99.90;;;;;;4996841;28;20041;-75
2021/03/30 03:15:43;;;;;;;12.35;3.13;;;7.30;99.90;;;;;;4992995;28;20542;-73
2021/03/30 03:18:10;;;;;;;9.93;2.40;;;7.20;99.90;;;;;;5005612;28;20063;-74
2021/03/30 03:20:36;;;;;;;7.82;1.77;;;7.30;99.90;;;;;;5006407;28;20077;-74
2021/03/30 03:23:05;;;;;;;7.78;1.70;;;7.20;99.90;;;;;;5005333;28;20030;-73
2021/03/30 03:25:31;;;;;;;10.38;2.42;;;7.10;99.90;;;;;;5006264;28;20038;-73
2021/03/30 03:28:00;;;;;;;22.52;11.73;;;7.20;99.90;;;;;;5005237;28;20056;-73
2021/03/30 03:30:27;;;;;;;17.17;6.15;;;7.20;99.90;;;;;;5006231;28;20080;-74
2021/03/30 03:32:52;;;;;;;12.50;4.25;;;7.20;99.90;;;;;;5005225;28;20026;-73
2021/03/30 03:35:19;;;;;;;12.68;3.38;;;7.20;99.90;;;;;;5006347;28;20624;-73
2021/03/30 03:37:46;;;;;;;15.95;5.72;;;7.30;99.90;;;;;;5005066;28;20030;-74
2021/03/30 03:40:14;;;;;;;7.95;2.80;;;7.40;99.90;;;;;;5006198;28;20506;-73
2021/03/30 03:42:40;;;;;;;13.60;3.17;;;7.30;99.90;;;;;;5004641;28;20104;-74
2021/03/30 03:45:08;;;;;;;7.20;2.10;;;7.30;99.90;;;;;;5006519;28;20042;-73
2021/03/30 03:47:34;;;;;;;25.92;12.20;;;7.20;99.90;;;;;;5004045;28;20025;-75
2021/03/30 03:50:03;;;;;;;17.67;7.95;;;7.20;99.90;;;;;;5005575;28;20037;-74
2021/03/30 03:52:33;;;;;;;14.68;6.38;;;7.20;99.90;;;;;;5004524;28;20659;-74
2021/03/30 03:54:59;;;;;;;14.57;5.95;;;7.10;99.90;;;;;;5006433;28;20029;-73
2021/03/30 03:57:30;;;;;;;9.65;3.70;;;7.10;99.90;;;;;;5005629;28;20454;-73
2021/03/30 03:59:58;;;;;;;8.75;2.55;;;7.00;99.90;;;;;;4986927;28;20439;-73
2021/03/30 04:02:43;;;;;;;12.65;3.05;;;7.20;99.90;;;;;;4985928;28;20041;-74
2021/03/30 04:05:11;;;;;;;7.28;2.22;;;7.30;99.90;;;;;;4987168;28;20510;-73
2021/03/30 04:08:03;;;;;;;5.38;1.83;;;7.30;99.90;;;;;;4988390;28;20339;-73
2021/03/30 04:10:31;;;;;;;9.00;3.45;;;7.20;99.90;;;;;;4990082;28;20054;-74
2021/03/30 04:12:57;;;;;;;7.30;2.67;;;7.10;99.90;;;;;;4989857;28;20022;-74
2021/03/30 04:15:26;;;;;;;8.18;3.08;;;7.10;99.90;;;;;;5008247;28;20042;-74
2021/03/30 04:17:52;;;;;;;10.32;2.15;;;7.00;99.90;;;;;;5009673;28;20033;-74
2021/03/30 04:20:20;;;;;;;8.00;2.67;;;7.10;99.90;;;;;;5006111;28;20041;-73
2021/03/30 04:22:56;;;;;;;14.68;6.38;;;7.00;99.90;;;;;;5003891;28;20189;-74
2021/03/30 04:25:23;;;;;;;8.88;2.97;;;7.00;99.90;;;;;;5007792;28;20116;-73
2021/03/30 04:27:48;;;;;;;9.40;2.70;;;7.00;99.90;;;;;;5004514;28;20033;-74
2021/03/30 04:30:14;;;;;;;7.68;2.00;;;7.00;99.90;;;;;;5008479;28;20039;-74
2021/03/30 04:32:40;;;;;;;7.03;2.63;;;7.00;99.90;;;;;;5009047;28;20050;-74
2021/03/30 04:35:07;;;;;;;8.90;2.13;;;7.00;99.90;;;;;;5008658;28;20084;-74
2021/03/30 04:37:32;;;;;;;7.82;2.33;;;7.00;99.90;;;;;;5007751;28;20030;-74
2021/03/30 04:39:58;;;;;;;8.77;2.17;;;7.00;99.90;;;;;;5008109;28;20033;-74
2021/03/30 04:42:24;;;;;;;10.25;3.63;;;7.00;99.90;;;;;;5009226;28;20026;-73
2021/03/30 04:44:49;;;;;;;10.32;2.67;;;7.00;99.90;;;;;;5008101;28;20128;-73
2021/03/30 04:47:15;;;;;;;15.10;2.70;;;7.00;99.90;;;;;;5005083;28;20034;-74
2021/03/30 04:49:41;;;;;;;7.65;2.47;;;7.00;99.90;;;;;;5005486;28;20398;-73
2021/03/30 04:52:07;;;;;;;6.78;2.50;;;7.00;99.90;;;;;;5001579;28;20101;-74
2021/03/30 04:54:32;;;;;;;10.90;2.88;;;6.90;99.90;;;;;;5005795;28;20474;-73
2021/03/30 04:56:58;;;;;;;10.32;2.72;;;6.80;99.90;;;;;;5002132;28;20034;-73
2021/03/30 04:59:24;;;;;;;9.43;3.22;;;6.80;99.90;;;;;;5005187;28;20480;-73
2021/03/30 05:01:49;;;;;;;12.50;2.50;;;6.90;99.90;;;;;;5004044;28;20042;-73
2021/03/30 05:04:17;;;;;;;10.20;2.40;;;6.80;99.90;;;;;;5003946;28;20065;-74
2021/03/30 05:06:42;;;;;;;7.60;2.35;;;6.90;99.90;;;;;;5004789;28;20034;-73
2021/03/30 05:09:08;;;;;;;11.65;3.17;;;6.80;99.90;;;;;;5002895;28;20040;-74
2021/03/30 05:11:34;;;;;;;17.63;4.03;;;6.70;99.90;;;;;;5006555;28;20033;-74
2021/03/30 05:14:00;;;;;;;33.80;14.43;;;6.80;99.90;;;;;;5006881;28;20391;-73
2021/03/30 05:16:25;;;;;;;28.02;12.60;;;6.70;99.90;;;;;;5006832;28;20092;-74
2021/03/30 05:18:51;;;;;;;22.05;9.88;;;6.70;99.90;;;;;;5006178;28;20501;-74
2021/03/30 05:21:18;;;;;;;18.92;6.18;;;6.80;99.90;;;;;;5005543;28;20042;-75
2021/03/30 05:23:43;;;;;;;15.88;5.60;;;6.80;99.90;;;;;;5007014;28;20514;-73
2021/03/30 05:26:09;;;;;;;17.92;5.00;;;6.80;99.90;;;;;;5006193;28;20113;-74
2021/03/30 05:28:35;;;;;;;14.68;5.25;;;6.80;99.90;;;;;;5007210;28;20034;-73
2021/03/30 05:31:00;;;;;;;11.77;3.55;;;6.70;99.90;;;;;;5007262;28;20036;-74
2021/03/30 05:33:26;;;;;;;9.98;3.28;;;6.70;99.90;;;;;;5007551;28;20472;-74
2021/03/30 05:35:51;;;;;;;10.38;2.90;;;6.70;99.90;;;;;;5006925;28;20065;-74
2021/03/30 05:38:17;;;;;;;11.93;3.67;;;6.80;99.90;;;;;;5007061;28;20080;-73
2021/03/30 05:40:43;;;;;;;13.85;3.92;;;6.70;99.90;;;;;;5007739;28;20595;-73
2021/03/30 05:43:10;;;;;;;19.40;4.18;;;6.70;99.90;;;;;;5006680;28;20475;-72
2021/03/30 05:45:37;;;;;;;11.27;3.67;;;6.70;99.90;;;;;;5010230;28;20069;-72
2021/03/30 05:48:03;;;;;;;14.43;3.83;;;6.80;99.90;;;;;;5001769;28;22073;-73
2021/03/30 05:50:29;;;;;;;14.52;4.05;;;6.80;99.90;;;;;;4999549;28;20100;-73
2021/03/30 05:53:05;;;;;;;15.02;3.90;;;6.80;99.90;;;;;;5004549;28;20033;-73
2021/03/30 05:55:33;;;;;;;16.23;4.45;;;6.80;99.90;;;;;;4992980;28;20383;-73
2021/03/30 05:58:00;;;;;;;14.30;4.20;;;6.80;99.90;;;;;;4999766;28;20038;-72
2021/03/30 06:00:34;;;;;;;15.48;4.90;;;6.80;99.90;;;;;;4999264;28;20054;-72
2021/03/30 06:03:08;;;;;;;16.15;5.00;;;6.80;99.90;;;;;;5002640;28;20108;-72
2021/03/30 06:05:35;;;;;;;17.25;4.93;;;6.80;99.90;;;;;;5002451;28;20438;-72
2021/03/30 06:08:01;;;;;;;18.73;4.95;;;6.70;99.90;;;;;;5005286;28;20065;-72
2021/03/30 06:10:30;;;;;;;18.02;5.35;;;6.80;99.90;;;;;;4999147;28;20077;-72
2021/03/30 06:12:58;;;;;;;12.20;5.32;;;6.80;99.90;;;;;;4993316;28;20111;-72
2021/03/30 06:15:30;;;;;;;12.73;4.18;;;6.70;99.90;;;;;;4996010;28;20039;-73
2021/03/30 06:17:57;;;;;;;20.10;5.18;;;6.70;99.90;;;;;;5004242;28;20083;-72
2021/03/30 06:20:36;;;;;;;19.95;4.60;;;6.80;99.90;;;;;;5009655;28;20037;-72
2021/03/30 06:23:04;;;;;;;16.30;5.22;;;6.70;99.90;;;;;;5008062;28;20487;-73
2021/03/30 06:25:45;;;;;;;18.65;5.43;;;6.80;99.90;;;;;;5000495;28;20049;-73
2021/03/30 06:28:15;;;;;;;18.02;5.40;;;6.70;99.90;;;;;;4999775;28;20054;-73
2021/03/30 06:31:03;;;;;;;20.98;5.65;;;6.80;99.90;;;;;;5009675;28;20112;-72
2021/03/30 06:33:34;;;;;;;23.02;6.60;;;6.90;99.90;;;;;;5002018;28;20809;-72
2021/03/30 06:36:21;;;;;;;27.05;7.43;;;7.00;99.90;;;;;;4998326;28;20100;-73
2021/03/30 06:38:52;;;;;;;23.13;6.75;;;7.20;99.90;;;;;;5004890;28;20033;-73
2021/03/30 06:46:58;;;;;;;20.30;5.88;;;8.00;99.90;;;;;;4999964;28;20049;-73
2021/03/30 06:49:26;;;;;;;18.90;5.60;;;8.30;99.90;;;;;;4994667;28;20026;-73
2021/03/30 06:51:53;;;;;;;21.88;5.78;;;8.50;99.90;;;;;;5003700;28;20616;-73
2021/03/30 06:54:19;;;;;;;23.30;6.43;;;8.70;99.90;;;;;;4997973;28;20334;-73
2021/03/30 06:56:58;;;;;;;23.38;6.53;;;8.80;99.90;;;;;;4999841;28;20077;-72
2021/03/30 06:59:25;;;;;;;24.23;6.70;;;9.10;99.90;;;;;;4998989;28;20036;-73
2021/03/30 07:01:54;;;;;;;18.38;5.60;;;9.40;99.90;;;;;;4994495;28;20096;-72
2021/03/30 07:04:20;;;;;;;20.77;6.05;;;9.70;99.90;;;;;;5000566;28;20435;-73
2021/03/30 07:06:53;;;;;;;15.20;4.53;;;9.80;99.90;;;;;;4994118;28;20037;-71
2021/03/30 07:09:21;;;;;;;12.30;4.35;;;10.10;99.90;;;;;;5002570;28;20046;-73
2021/03/30 07:11:47;;;;;;;16.67;5.22;;;10.30;99.90;;;;;;4998607;28;20026;-73
2021/03/30 07:14:13;;;;;;;20.20;4.93;;;10.40;99.90;;;;;;4994896;28;20113;-72
2021/03/30 07:16:49;;;;;;;22.50;7.07;;;10.70;99.90;;;;;;5001298;28;20252;-73
2021/03/30 07:19:18;;;;;;;18.80;5.95;;;10.80;99.90;;;;;;5000578;28;20049;-73
2021/03/30 07:22:02;;;;;;;18.20;5.28;;;11.10;99.90;;;;;;4989027;28;20026;-73
2021/03/30 07:24:35;;;;;;;19.67;5.50;;;11.20;99.90;;;;;;4999704;28;20717;-72
2021/03/30 07:27:05;;;;;;;;;;;11.20;99.90;;;;;;4991148;28;20038;-73
2021/03/30 07:29:40;;;;;;;23.13;6.20;;;11.40;99.90;;;;;;4999919;28;19918;-72
2021/03/30 07:32:08;;;;;;;15.32;4.40;;;11.50;99.90;;;;;;5000764;28;20649;-73
2021/03/30 07:34:56;;;;;;;19.88;5.40;;;11.40;99.90;;;;;;4998527;28;20253;-73
2021/03/30 07:37:28;;;;;;;17.13;4.93;;;11.70;99.90;;;;;;4997039;28;20030;-72
2021/03/30 07:39:55;;;;;;;16.20;5.70;;;12.10;99.90;;;;;;4999999;28;20034;-72
2021/03/30 07:42:22;;;;;;;17.25;6.07;;;12.30;99.90;;;;;;4994243;28;20042;-73
2021/03/30 07:44:49;;;;;;;17.92;5.20;;;12.20;99.90;;;;;;4994323;28;20046;-72
2021/03/30 07:47:19;;;;;;;20.63;5.25;;;12.00;99.90;;;;;;4995386;28;20091;-73
2021/03/30 07:49:48;;;;;;;11.88;4.18;;;12.20;99.90;;;;;;4999444;28;20300;-73
2021/03/30 07:52:19;;;;;;;15.80;4.93;;;12.30;99.70;;;;;;4998880;28;20026;-73
2021/03/30 07:55:13;;;;;;;13.43;4.35;;;12.50;99.90;;;;;;5004017;28;20036;-73
2021/03/30 07:57:59;;;;;;;11.80;4.20;;;12.90;99.40;;;;;;4997164;28;20045;-73
2021/03/30 08:00:33;;;;;;;12.05;4.32;;;12.90;98.10;;;;;;4998049;28;20116;-73
2021/03/30 08:03:09;;;;;;;16.38;4.28;;;12.80;98.10;;;;;;4994218;28;20042;-72
2021/03/30 08:05:35;;;;;;;13.73;4.03;;;13.10;98.00;;;;;;4998392;28;20383;-73
2021/03/30 08:08:02;;;;;;;14.55;4.30;;;13.40;97.70;;;;;;5003244;28;20038;-73
2021/03/30 08:10:27;;;;;;;12.75;3.95;;;13.50;96.90;;;;;;5000732;28;20065;-73
2021/03/30 08:13:25;;;;;;;14.15;4.15;;;13.70;95.90;;;;;;4998983;28;20625;-73
2021/03/30 08:15:53;;;;;;;12.02;3.78;;;13.60;95.80;;;;;;4998275;28;20041;-73
2021/03/30 08:18:21;;;;;;;10.48;4.03;;;13.60;94.70;;;;;;5000844;28;20042;-73
2021/03/30 08:21:02;;;;;;;10.60;3.35;;;13.60;94.20;;;;;;4998237;28;20066;-73
2021/03/30 08:23:28;;;;;;;11.27;3.15;;;13.70;94.30;;;;;;4998299;28;20399;-73
2021/03/30 08:26:20;;;;;;;13.63;3.50;;;14.10;93.80;;;;;;4994869;28;20026;-73
2021/03/30 08:28:48;;;;;;;11.95;2.95;;;14.10;92.00;;;;;;4996160;28;20505;-73
2021/03/30 08:31:16;;;;;;;11.10;2.60;;;14.10;92.10;;;;;;4994753;28;20072;-73
2021/03/30 08:33:43;;;;;;;9.02;2.95;;;14.20;92.40;;;;;;5002672;28;20662;-73
2021/03/30 08:36:30;;;;;;;10.55;2.97;;;14.00;91.80;;;;;;4999499;28;20033;-72
2021/03/30 08:39:09;;;;;;;11.38;3.08;;;14.50;92.10;;;;;;4993989;28;20395;-73
2021/03/30 08:41:45;;;;;;;10.18;3.00;;;14.60;91.30;;;;;;4995344;28;20066;-73
2021/03/30 08:44:13;;;;;;;15.18;3.20;;;14.30;91.30;;;;;;4991336;28;20026;-73
2021/03/30 08:46:40;;;;;;;13.15;2.92;;;14.20;91.40;;;;;;4987556;28;20502;-73
2021/03/30 08:49:35;;;;;;;11.25;2.80;;;14.10;90.60;;;;;;4998718;28;20467;-73
2021/03/30 08:52:07;;;;;;;9.65;3.05;;;14.00;90.80;;;;;;5002041;28;20038;-73
2021/03/30 08:54:35;;;;;;;9.98;2.67;;;14.30;90.90;;;;;;5002026;28;20040;-73
2021/03/30 08:57:07;;;;;;;10.63;2.50;;;14.30;89.80;;;;;;5000740;28;20044;-73
2021/03/30 08:59:34;;;;;;;9.30;3.15;;;14.20;90.00;;;;;;5000842;28;20381;-74
2021/03/30 09:02:08;;;;;;;11.45;2.45;;;14.30;90.90;;;;;;4999041;28;20045;-73
2021/03/30 09:04:45;;;;;;;16.50;3.00;;;14.20;90.40;;;;;;4998690;28;20583;-73
2021/03/30 09:07:11;;;;;;;10.27;2.75;;;13.80;90.50;;;;;;4991528;28;20125;-73
2021/03/30 09:09:37;;;;;;;9.75;3.40;;;14.00;90.60;;;;;;5001290;28;20034;-73
2021/03/30 09:12:16;;;;;;;11.60;2.30;;;14.30;90.00;;;;;;4998956;28;20034;-73
2021/03/30 09:14:45;;;;;;;14.45;2.00;;;14.10;89.30;;;;;;5001980;28;20032;-73
2021/03/30 09:17:13;;;;;;;12.52;2.35;;;14.30;88.90;;;;;;5003163;28;20034;-72
2021/03/30 09:19:45;;;;;;;13.35;3.42;;;14.70;89.70;;;;;;4995385;28;20037;-74
2021/03/30 09:22:17;;;;;;;13.63;2.75;;;14.90;90.00;;;;;;4997914;28;20034;-73
2021/03/30 09:27:28;;;;;;;13.88;2.70;;;14.90;87.10;;;;;;4998333;28;20141;-73
2021/03/30 09:29:56;;;;;;;13.05;3.17;;;14.90;87.20;;;;;;4999790;28;20068;-74
2021/03/30 09:32:24;;;;;;;16.67;3.65;;;14.80;86.70;;;;;;5007331;28;20027;-73
2021/03/30 09:34:53;;;;;;;13.75;3.40;;;14.70;87.10;;;;;;5001327;28;20121;-74
2021/03/30 09:37:19;;;;;;;10.02;3.08;;;14.80;87.90;;;;;;5001790;28;21298;-73
2021/03/30 09:39:45;;;;;;;13.93;3.20;;;15.00;88.40;;;;;;5002250;28;20037;-73
2021/03/30 09:42:12;;;;;;;14.65;3.25;;;15.20;86.60;;;;;;4997034;28;20035;-73
2021/03/30 09:44:42;;;;;;;10.77;3.22;;;15.60;86.30;;;;;;5000884;28;20029;-73
2021/03/30 09:47:10;;;;;;;11.90;3.17;;;15.80;87.20;;;;;;4999479;28;20041;-74
2021/03/30 09:49:37;;;;;;;11.18;3.00;;;15.90;85.80;;;;;;4996019;28;20089;-73
2021/03/30 09:52:04;;;;;;;10.90;2.45;;;16.10;83.90;;;;;;4993098;28;20341;-73
2021/03/30 09:54:48;;;;;;;10.27;2.83;;;15.60;83.10;;;;;;5000016;28;20454;-74
2021/03/30 09:57:21;;;;;;;11.80;2.47;;;15.50;82.60;;;;;;5003339;28;20036;-73
2021/03/30 09:59:48;;;;;;;11.27;2.75;;;15.30;82.00;;;;;;5000613;28;20453;-74
2021/03/30 10:02:16;;;;;;;8.75;2.13;;;15.50;82.50;;;;;;5004339;28;20395;-74
2021/03/30 10:04:42;;;;;;;11.65;2.60;;;15.50;83.00;;;;;;4994892;28;20117;-74
2021/03/30 10:07:18;;;;;;;13.07;2.67;;;15.90;81.30;;;;;;5002832;28;20030;-74
2021/03/30 10:10:13;;;;;;;14.80;2.67;;;16.10;79.80;;;;;;4994304;28;20030;-73
2021/03/30 10:13:03;;;;;;;10.85;2.35;;;16.40;80.80;;;;;;4996576;28;20036;-76
2021/03/30 10:15:39;;;;;;;12.27;2.38;;;16.70;79.30;;;;;;4997699;28;20509;-75
2021/03/30 10:18:06;;;;;;;9.93;2.58;;;16.70;77.60;;;;;;4995148;28;20483;-73
2021/03/30 10:20:36;;;;;;;8.52;2.17;;;16.90;77.40;;;;;;5005168;28;20475;-73
2021/03/30 10:23:12;;;;;;;13.10;2.47;;;17.20;76.30;;;;;;5004090;28;20034;-73
2021/03/30 10:25:38;;;;;;;16.65;2.33;;;17.50;74.80;;;;;;4994784;28;20054;-73
2021/03/30 10:28:04;;;;;;;10.75;2.03;;;17.50;73.70;;;;;;4990933;28;20113;-73
2021/03/30 10:30:31;;;;;;;7.93;2.25;;;17.60;73.50;;;;;;4993728;28;20466;-74
2021/03/30 10:33:00;;;;;;;7.95;2.05;;;17.80;71.60;;;;;;4994235;28;20104;-73
2021/03/30 10:35:26;;;;;;;7.95;1.50;;;18.00;72.70;;;;;;4994703;28;20096;-74
2021/03/30 10:37:52;;;;;;;8.20;1.40;;;17.60;67.40;;;;;;4999548;28;20112;-73
2021/03/30 10:40:19;;;;;;;12.57;1.20;;;17.70;67.30;;;;;;5004746;28;20156;-74
2021/03/30 10:42:45;;;;;;;6.57;1.52;;;17.70;70.40;;;;;;5000407;28;20037;-74
2021/03/30 10:45:12;;;;;;;6.47;1.50;;;17.40;66.00;;;;;;4993289;28;20369;-74
2021/03/30 10:47:40;;;;;;;6.82;1.60;;;17.30;68.00;;;;;;5000193;28;20372;-74
2021/03/30 10:50:10;;;;;;;6.88;1.20;;;17.30;66.30;;;;;;5004806;28;20361;-73
2021/03/30 10:52:37;;;;;;;6.35;1.50;;;17.40;68.00;;;;;;5003774;28;20069;-74
2021/03/30 10:55:12;;;;;;;6.82;1.13;;;17.70;67.70;;;;;;5004137;28;20026;-73
2021/03/30 10:57:40;;;;;;;7.05;1.55;;;18.00;67.30;;;;;;4999564;28;20060;-73
2021/03/30 11:00:08;;;;;;;6.00;1.33;;;18.30;66.20;;;;;;5003479;28;20057;-73
2021/03/30 11:02:33;;;;;;;8.07;1.65;;;18.00;64.20;;;;;;5002492;28;20383;-73
2021/03/30 11:04:59;;;;;;;13.10;1.65;;;18.10;66.20;;;;;;5002548;28;20030;-73
2021/03/30 11:07:25;;;;;;;7.90;1.65;;;18.40;65.40;;;;;;4999314;28;20034;-72
2021/03/30 11:09:51;;;;;;;7.88;1.30;;;18.90;65.70;;;;;;5008867;28;20837;-73
2021/03/30 11:12:17;;;;;;;7.95;1.50;;;19.30;64.70;;;;;;4996740;28;20042;-73
2021/03/30 11:14:43;;;;;;;5.00;1.10;;;19.30;62.30;;;;;;4997286;28;20073;-72
2021/03/30 11:17:09;;;;;;;8.98;1.55;;;19.10;61.70;;;;;;4999824;28;20463;-73
2021/03/30 11:19:35;;;;;;;7.32;1.30;;;19.40;61.60;;;;;;5003131;28;20037;-73
2021/03/30 11:22:01;;;;;;;8.52;1.88;;;19.10;60.20;;;;;;5006082;28;20037;-73
2021/03/30 11:24:31;;;;;;;9.32;1.52;;;19.60;61.10;;;;;;5005824;28;20037;-72
2021/03/30 11:26:58;;;;;;;6.80;1.13;;;19.70;59.50;;;;;;5005492;28;20070;-73
2021/03/30 11:37:01;;;;;;;5.13;1.38;;;19.00;57.00;;;;;;4997172;28;20507;-73
2021/03/30 11:39:27;;;;;;;10.55;1.98;;;18.90;58.30;;;;;;4999599;28;20092;-73
2021/03/30 11:41:52;;;;;;;7.78;1.80;;;19.10;57.80;;;;;;4998438;28;20042;-73
2021/03/30 11:44:18;;;;;;;4.55;0.98;;;18.80;59.90;;;;;;5000876;28;20034;-74
2021/03/30 11:46:43;;;;;;;6.90;1.30;;;18.90;56.40;;;;;;5002485;28;20083;-73
2021/03/30 11:49:09;;;;;;;5.25;1.40;;;18.80;57.40;;;;;;4997146;28;20037;-73
2021/03/30 11:51:34;;;;;;;7.95;1.80;;;18.80;57.50;;;;;;5001014;28;20037;-73
2021/03/30 11:54:00;;;;;;;7.63;2.22;;;18.70;58.30;;;;;;4996565;28;20054;-73
2021/03/30 11:56:26;;;;;;;6.38;1.75;;;19.00;59.80;;;;;;4998821;28;20036;-74
2021/03/30 11:58:52;;;;;;;5.88;2.00;;;19.00;58.30;;;;;;4997778;28;20022;-73
2021/03/30 12:01:18;;;;;;;8.68;1.85;;;19.00;57.30;;;;;;4992758;28;20046;-73
2021/03/30 12:03:43;;;;;;;8.90;1.98;;;19.10;60.20;;;;;;4999491;28;20463;-73
2021/03/30 12:06:09;;;;;;;4.97;1.40;;;19.00;57.10;;;;;;4997201;28;20088;-73
2021/03/30 12:08:35;;;;;;;9.48;1.83;;;19.30;57.80;;;;;;4993632;28;20041;-73
2021/03/30 12:11:01;;;;;;;8.00;1.73;;;19.30;58.70;;;;;;4999492;28;20263;-73
2021/03/30 12:13:26;;;;;;;5.35;1.60;;;19.40;56.90;;;;;;4998537;28;20034;-73
2021/03/30 12:15:52;;;;;;;6.60;1.50;;;19.90;57.60;;;;;;4999535;28;20061;-73
2021/03/30 12:18:18;;;;;;;5.60;1.75;;;19.90;57.90;;;;;;4988226;28;20484;-73
2021/03/30 12:20:44;;;;;;;5.43;2.00;;;19.90;57.40;;;;;;4990293;28;20034;-73
2021/03/30 12:23:10;;;;;;;8.27;2.03;;;20.00;60.40;;;;;;4993496;28;20042;-73
2021/03/30 12:25:36;;;;;;;9.95;2.15;;;20.30;61.80;;;;;;4993089;28;21043;-74
2021/03/30 12:28:02;;;;;;;8.25;1.95;;;20.20;58.40;;;;;;4981158;28;20576;-73
2021/03/30 12:30:28;;;;;;;9.82;1.73;;;19.90;58.40;;;;;;4996591;28;20025;-73
2021/03/30 12:32:53;;;;;;;7.85;1.40;;;20.10;58.00;;;;;;5004529;28;20501;-73
2021/03/30 12:35:19;;;;;;;5.55;1.58;;;20.00;58.20;;;;;;4996012;28;20468;-73
2021/03/30 12:37:45;;;;;;;7.88;2.03;;;20.20;59.90;;;;;;4988557;28;20412;-73
2021/03/30 12:40:10;;;;;;;5.97;1.60;;;20.40;59.80;;;;;;5005909;28;20033;-73
2021/03/30 12:42:36;;;;;;;8.90;2.05;;;20.50;59.10;;;;;;5001799;28;20038;-73
2021/03/30 12:45:03;;;;;;;8.07;1.88;;;20.40;57.90;;;;;;5005068;28;20073;-73
2021/03/30 12:47:29;;;;;;;8.07;2.03;;;20.60;59.70;;;;;;4996236;28;20481;-73
2021/03/30 12:49:54;;;;;;;10.02;1.92;;;20.90;58.30;;;;;;4999432;28;20105;-73
2021/03/30 12:52:20;;;;;;;8.25;2.33;;;21.10;60.00;;;;;;5006074;28;20037;-73
2021/03/30 12:54:46;;;;;;;7.07;2.60;;;20.70;55.90;;;;;;5010116;28;20427;-73
2021/03/30 12:57:11;;;;;;;8.70;2.30;;;20.90;59.60;;;;;;5008110;28;20456;-73
2021/03/30 12:59:37;;;;;;;10.95;2.30;;;20.90;59.10;;;;;;5010372;28;20081;-73
2021/03/30 13:02:03;;;;;;;6.93;2.58;;;21.10;58.80;;;;;;5010188;28;20033;-73
2021/03/30 13:04:28;;;;;;;9.20;2.90;;;20.80;57.00;;;;;;5005337;28;20041;-73
2021/03/30 13:06:54;;;;;;;7.43;2.55;;;20.60;58.60;;;;;;5004820;28;20516;-73
2021/03/30 13:09:19;;;;;;;9.45;2.75;;;20.80;59.90;;;;;;5007773;28;20529;-72
2021/03/30 13:11:45;;;;;;;16.52;3.05;;;20.90;58.20;;;;;;5011432;28;20038;-73
2021/03/30 13:14:11;;;;;;;8.10;2.17;;;20.90;58.10;;;;;;5008917;28;20034;-73